Estación Meteorológica Peña el Pijo (Robertgarden) [ 09/26/18 04:47:11 CEST ]

Fecha Hora Presion(HPa) Temp (°C) Humedad % Rocio (°C) Viento ( m/s) Direccion Lluvia 1Hora(mm) Lluvia 24H(mm) LLuvia Total(mm)
2018-Sep-25 01:01:33 1015.600 14.8 75 10.4         354.31
2018-Sep-25 02:01:24 1015.300 14.3 77 10.3         354.31
2018-Sep-25 03:04:11 1015.200 13.6 78 9.8         354.31
2018-Sep-25 04:01:46 1015.100 12.8 79 9.2         354.31
2018-Sep-25 05:02:04 1015.300 12.3 82 9.3         354.31
2018-Sep-25 06:01:52 1015.100 11.6 83 8.8         354.31
2018-Sep-25 07:01:10 1015.200 11.3 84 8.7         354.31
2018-Sep-25 08:01:31 1015.400 10.6 85 8.1         354.31
2018-Sep-25 09:01:10 1015.800 10.9 86 8.6         354.31
2018-Sep-25 10:01:52 1016.500 18.0 85 15.4         354.31
2018-Sep-25 11:01:51 1016.800 22.8 67 16.3         354.31
2018-Sep-25 12:01:43 1016.700 25.9 56 16.4         354.31
2018-Sep-25 13:01:43 1016.300 27.9 49 16.2         354.31
2018-Sep-25 14:01:51 1015.800 28.3 47 15.9 2.6 SSW     354.31
2018-Sep-25 15:01:48 1015.200 29.8 44 16.2         354.31
2018-Sep-25 16:01:46 1014.700 31.1 40 16.0         354.31
2018-Sep-25 17:01:46 1014.600 27.1 46 14.4         354.31
2018-Sep-25 18:01:55 1014.700 26.4 49 14.8 1.8 SSW     354.31
2018-Sep-25 19:01:44 1014.700 23.9 55 14.3         354.31
2018-Sep-25 20:02:01 1015.200 21.7 64 14.6         354.31
2018-Sep-25 21:01:41 1015.900 20.1 71 14.7         354.31
2018-Sep-25 22:01:51 1016.700 19.5 75 14.9         354.31
2018-Sep-25 23:01:43 1017.100 19.3 76 15.0         354.31

Temperatura Máxima:31°    Temperatura Mínima:10°
Presión Máxima:1017.100 Hpa    Presión Mínima:1014.600 Hpa


Volver